sensor_id;sensor_type;location;lat;lon;timestamp;P1;durP1;ratioP1;P2;durP2;ratioP2
35839;SDS011;35514;50.504;30.500;2023-03-23T00:00:46;53.25;;;17.73;;
35839;SDS011;35514;50.504;30.500;2023-03-23T00:03:12;49.83;;;18.90;;
35839;SDS011;35514;50.504;30.500;2023-03-23T00:05:39;57.28;;;18.40;;
35839;SDS011;35514;50.504;30.500;2023-03-23T00:08:06;44.42;;;18.05;;
35839;SDS011;35514;50.504;30.500;2023-03-23T00:10:34;59.70;;;20.70;;
35839;SDS011;35514;50.504;30.500;2023-03-23T00:13:02;54.65;;;19.77;;
35839;SDS011;35514;50.504;30.500;2023-03-23T00:15:29;57.60;;;20.50;;
35839;SDS011;35514;50.504;30.500;2023-03-23T00:17:58;45.05;;;18.75;;
35839;SDS011;35514;50.504;30.500;2023-03-23T00:20:28;54.30;;;20.73;;
35839;SDS011;35514;50.504;30.500;2023-03-23T00:22:54;48.92;;;20.00;;
35839;SDS011;35514;50.504;30.500;2023-03-23T00:25:25;47.67;;;20.30;;
35839;SDS011;35514;50.504;30.500;2023-03-23T00:27:52;58.90;;;20.90;;
35839;SDS011;35514;50.504;30.500;2023-03-23T00:30:19;49.70;;;20.65;;
35839;SDS011;35514;50.504;30.500;2023-03-23T00:32:49;53.15;;;20.35;;
35839;SDS011;35514;50.504;30.500;2023-03-23T00:35:16;49.58;;;19.10;;
35839;SDS011;35514;50.504;30.500;2023-03-23T00:37:42;50.42;;;20.63;;
35839;SDS011;35514;50.504;30.500;2023-03-23T00:40:09;46.90;;;19.57;;
35839;SDS011;35514;50.504;30.500;2023-03-23T00:42:37;50.47;;;21.77;;
35839;SDS011;35514;50.504;30.500;2023-03-23T00:45:30;51.75;;;20.85;;
35839;SDS011;35514;50.504;30.500;2023-03-23T00:48:00;52.22;;;18.45;;
35839;SDS011;35514;50.504;30.500;2023-03-23T00:50:27;48.47;;;19.98;;
35839;SDS011;35514;50.504;30.500;2023-03-23T00:52:54;51.22;;;21.55;;
35839;SDS011;35514;50.504;30.500;2023-03-23T00:55:47;47.60;;;18.05;;
35839;SDS011;35514;50.504;30.500;2023-03-23T00:58:38;55.65;;;20.75;;
35839;SDS011;35514;50.504;30.500;2023-03-23T01:01:06;50.50;;;20.80;;
35839;SDS011;35514;50.504;30.500;2023-03-23T01:03:33;55.15;;;21.10;;
35839;SDS011;35514;50.504;30.500;2023-03-23T01:06:03;53.15;;;20.17;;
35839;SDS011;35514;50.504;30.500;2023-03-23T01:08:30;57.30;;;20.48;;
35839;SDS011;35514;50.504;30.500;2023-03-23T01:11:01;54.20;;;21.10;;
35839;SDS011;35514;50.504;30.500;2023-03-23T01:13:28;49.53;;;20.38;;
35839;SDS011;35514;50.504;30.500;2023-03-23T01:15:55;60.03;;;23.42;;
35839;SDS011;35514;50.504;30.500;2023-03-23T01:18:23;55.90;;;20.67;;
35839;SDS011;35514;50.504;30.500;2023-03-23T01:20:49;57.20;;;23.52;;
35839;SDS011;35514;50.504;30.500;2023-03-23T01:23:16;63.08;;;25.85;;
35839;SDS011;35514;50.504;30.500;2023-03-23T01:25:42;61.28;;;24.35;;
35839;SDS011;35514;50.504;30.500;2023-03-23T01:28:10;69.28;;;26.80;;
35839;SDS011;35514;50.504;30.500;2023-03-23T01:30:37;65.35;;;24.55;;
35839;SDS011;35514;50.504;30.500;2023-03-23T01:33:03;56.88;;;23.05;;
35839;SDS011;35514;50.504;30.500;2023-03-23T01:35:31;58.25;;;23.17;;
35839;SDS011;35514;50.504;30.500;2023-03-23T01:37:57;59.30;;;23.25;;
35839;SDS011;35514;50.504;30.500;2023-03-23T01:40:26;58.67;;;22.08;;
35839;SDS011;35514;50.504;30.500;2023-03-23T01:42:53;61.40;;;23.02;;
35839;SDS011;35514;50.504;30.500;2023-03-23T01:45:25;52.33;;;21.88;;
35839;SDS011;35514;50.504;30.500;2023-03-23T01:47:54;60.97;;;23.65;;
35839;SDS011;35514;50.504;30.500;2023-03-23T01:50:21;57.45;;;22.48;;
35839;SDS011;35514;50.504;30.500;2023-03-23T01:52:50;59.00;;;23.48;;
35839;SDS011;35514;50.504;30.500;2023-03-23T01:55:18;57.75;;;21.75;;
35839;SDS011;35514;50.504;30.500;2023-03-23T01:57:46;61.45;;;24.45;;
35839;SDS011;35514;50.504;30.500;2023-03-23T02:00:13;53.92;;;24.02;;
35839;SDS011;35514;50.504;30.500;2023-03-23T02:02:41;52.38;;;22.95;;
35839;SDS011;35514;50.504;30.500;2023-03-23T02:05:08;57.45;;;20.98;;
35839;SDS011;35514;50.504;30.500;2023-03-23T02:07:36;59.63;;;23.88;;
35839;SDS011;35514;50.504;30.500;2023-03-23T02:10:29;52.60;;;21.92;;
35839;SDS011;35514;50.504;30.500;2023-03-23T02:12:55;53.72;;;22.15;;
35839;SDS011;35514;50.504;30.500;2023-03-23T02:15:22;53.15;;;23.40;;
35839;SDS011;35514;50.504;30.500;2023-03-23T02:18:19;45.85;;;21.17;;
35839;SDS011;35514;50.504;30.500;2023-03-23T02:20:54;50.38;;;21.92;;
35839;SDS011;35514;50.504;30.500;2023-03-23T02:26:18;49.97;;;20.98;;
35839;SDS011;35514;50.504;30.500;2023-03-23T02:28:55;55.97;;;21.10;;
35839;SDS011;35514;50.504;30.500;2023-03-23T02:31:29;51.58;;;21.02;;
35839;SDS011;35514;50.504;30.500;2023-03-23T02:34:06;56.03;;;21.83;;
35839;SDS011;35514;50.504;30.500;2023-03-23T02:36:36;48.13;;;21.73;;
35839;SDS011;35514;50.504;30.500;2023-03-23T02:39:05;49.53;;;21.35;;
35839;SDS011;35514;50.504;30.500;2023-03-23T02:41:36;53.70;;;21.05;;
35839;SDS011;35514;50.504;30.500;2023-03-23T02:44:06;50.20;;;21.73;;
35839;SDS011;35514;50.504;30.500;2023-03-23T02:46:33;56.58;;;21.17;;
35839;SDS011;35514;50.504;30.500;2023-03-23T02:49:00;48.78;;;21.75;;
35839;SDS011;35514;50.504;30.500;2023-03-23T02:51:29;52.78;;;20.17;;
35839;SDS011;35514;50.504;30.500;2023-03-23T02:53:56;50.95;;;21.48;;
35839;SDS011;35514;50.504;30.500;2023-03-23T02:56:25;45.97;;;20.35;;
35839;SDS011;35514;50.504;30.500;2023-03-23T02:58:53;50.92;;;22.65;;
35839;SDS011;35514;50.504;30.500;2023-03-23T03:04:09;52.95;;;21.70;;
35839;SDS011;35514;50.504;30.500;2023-03-23T03:06:40;55.58;;;22.70;;
35839;SDS011;35514;50.504;30.500;2023-03-23T03:09:36;51.33;;;22.83;;
35839;SDS011;35514;50.504;30.500;2023-03-23T03:12:06;52.38;;;22.30;;
35839;SDS011;35514;50.504;30.500;2023-03-23T03:14:37;59.20;;;23.55;;
35839;SDS011;35514;50.504;30.500;2023-03-23T03:17:06;54.90;;;24.08;;
35839;SDS011;35514;50.504;30.500;2023-03-23T03:19:33;55.28;;;22.60;;
35839;SDS011;35514;50.504;30.500;2023-03-23T03:22:03;49.25;;;21.90;;
35839;SDS011;35514;50.504;30.500;2023-03-23T03:24:30;54.88;;;23.63;;
35839;SDS011;35514;50.504;30.500;2023-03-23T03:26:57;56.83;;;25.65;;
35839;SDS011;35514;50.504;30.500;2023-03-23T03:29:25;54.30;;;23.88;;
35839;SDS011;35514;50.504;30.500;2023-03-23T03:31:52;58.70;;;24.33;;
35839;SDS011;35514;50.504;30.500;2023-03-23T03:34:22;61.70;;;26.05;;
35839;SDS011;35514;50.504;30.500;2023-03-23T03:36:49;58.42;;;23.10;;
35839;SDS011;35514;50.504;30.500;2023-03-23T03:39:18;55.58;;;23.83;;
35839;SDS011;35514;50.504;30.500;2023-03-23T03:41:45;54.58;;;24.25;;
35839;SDS011;35514;50.504;30.500;2023-03-23T03:44:12;50.75;;;23.70;;
35839;SDS011;35514;50.504;30.500;2023-03-23T03:46:38;55.55;;;23.08;;
35839;SDS011;35514;50.504;30.500;2023-03-23T03:49:06;67.78;;;26.52;;
35839;SDS011;35514;50.504;30.500;2023-03-23T03:51:33;59.63;;;24.92;;
35839;SDS011;35514;50.504;30.500;2023-03-23T03:54:00;48.55;;;20.83;;
35839;SDS011;35514;50.504;30.500;2023-03-23T03:56:28;55.88;;;23.35;;
35839;SDS011;35514;50.504;30.500;2023-03-23T03:58:57;46.25;;;21.42;;
35839;SDS011;35514;50.504;30.500;2023-03-23T04:01:24;54.75;;;22.33;;
35839;SDS011;35514;50.504;30.500;2023-03-23T04:03:51;64.72;;;24.23;;
35839;SDS011;35514;50.504;30.500;2023-03-23T04:06:17;60.20;;;23.85;;
35839;SDS011;35514;50.504;30.500;2023-03-23T04:08:44;58.85;;;23.10;;
35839;SDS011;35514;50.504;30.500;2023-03-23T04:11:11;57.10;;;23.40;;
35839;SDS011;35514;50.504;30.500;2023-03-23T04:13:40;54.20;;;24.38;;
35839;SDS011;35514;50.504;30.500;2023-03-23T04:16:07;54.28;;;22.52;;
35839;SDS011;35514;50.504;30.500;2023-03-23T04:18:34;56.85;;;23.10;;
35839;SDS011;35514;50.504;30.500;2023-03-23T04:21:01;54.00;;;23.52;;
35839;SDS011;35514;50.504;30.500;2023-03-23T04:23:28;58.60;;;23.40;;
35839;SDS011;35514;50.504;30.500;2023-03-23T04:25:56;54.63;;;23.17;;
35839;SDS011;35514;50.504;30.500;2023-03-23T04:28:23;57.78;;;23.75;;
35839;SDS011;35514;50.504;30.500;2023-03-23T04:30:51;48.13;;;22.27;;
35839;SDS011;35514;50.504;30.500;2023-03-23T04:33:19;54.00;;;22.48;;
35839;SDS011;35514;50.504;30.500;2023-03-23T04:35:46;51.50;;;22.95;;
35839;SDS011;35514;50.504;30.500;2023-03-23T04:38:14;51.78;;;22.30;;
35839;SDS011;35514;50.504;30.500;2023-03-23T04:40:42;47.22;;;21.35;;
35839;SDS011;35514;50.504;30.500;2023-03-23T04:43:09;58.00;;;24.70;;
35839;SDS011;35514;50.504;30.500;2023-03-23T04:45:38;55.17;;;23.40;;
35839;SDS011;35514;50.504;30.500;2023-03-23T04:48:07;56.67;;;23.30;;
35839;SDS011;35514;50.504;30.500;2023-03-23T04:50:35;62.13;;;25.58;;
35839;SDS011;35514;50.504;30.500;2023-03-23T04:53:02;52.20;;;22.77;;
35839;SDS011;35514;50.504;30.500;2023-03-23T04:55:29;49.50;;;22.05;;
35839;SDS011;35514;50.504;30.500;2023-03-23T04:58:01;48.08;;;21.77;;
35839;SDS011;35514;50.504;30.500;2023-03-23T05:00:27;55.42;;;21.92;;
35839;SDS011;35514;50.504;30.500;2023-03-23T05:02:54;49.97;;;22.52;;
35839;SDS011;35514;50.504;30.500;2023-03-23T05:05:22;56.85;;;22.80;;
35839;SDS011;35514;50.504;30.500;2023-03-23T05:07:50;49.42;;;22.90;;
35839;SDS011;35514;50.504;30.500;2023-03-23T05:10:16;52.70;;;22.73;;
35839;SDS011;35514;50.504;30.500;2023-03-23T05:12:43;58.17;;;24.38;;
35839;SDS011;35514;50.504;30.500;2023-03-23T05:15:10;50.30;;;21.10;;
35839;SDS011;35514;50.504;30.500;2023-03-23T05:17:37;47.08;;;22.35;;
35839;SDS011;35514;50.504;30.500;2023-03-23T05:20:06;53.88;;;21.83;;
35839;SDS011;35514;50.504;30.500;2023-03-23T05:22:35;50.95;;;22.40;;
35839;SDS011;35514;50.504;30.500;2023-03-23T05:25:26;54.72;;;22.23;;
35839;SDS011;35514;50.504;30.500;2023-03-23T05:27:53;51.03;;;20.73;;
35839;SDS011;35514;50.504;30.500;2023-03-23T05:30:20;53.88;;;22.10;;
35839;SDS011;35514;50.504;30.500;2023-03-23T05:32:46;53.13;;;21.77;;
35839;SDS011;35514;50.504;30.500;2023-03-23T05:35:15;51.28;;;21.52;;
35839;SDS011;35514;50.504;30.500;2023-03-23T05:37:43;56.45;;;24.10;;
35839;SDS011;35514;50.504;30.500;2023-03-23T05:40:11;52.10;;;23.05;;
35839;SDS011;35514;50.504;30.500;2023-03-23T05:42:41;50.55;;;19.77;;
35839;SDS011;35514;50.504;30.500;2023-03-23T05:45:08;42.63;;;21.42;;
35839;SDS011;35514;50.504;30.500;2023-03-23T05:47:36;47.65;;;20.75;;
35839;SDS011;35514;50.504;30.500;2023-03-23T05:50:03;56.33;;;25.60;;
35839;SDS011;35514;50.504;30.500;2023-03-23T05:52:30;43.15;;;21.40;;
35839;SDS011;35514;50.504;30.500;2023-03-23T05:54:59;44.55;;;19.77;;
35839;SDS011;35514;50.504;30.500;2023-03-23T05:57:26;45.33;;;19.77;;
35839;SDS011;35514;50.504;30.500;2023-03-23T05:59:53;47.90;;;20.67;;
35839;SDS011;35514;50.504;30.500;2023-03-23T06:02:20;54.47;;;20.77;;
35839;SDS011;35514;50.504;30.500;2023-03-23T06:04:48;42.13;;;20.20;;
35839;SDS011;35514;50.504;30.500;2023-03-23T06:07:15;50.10;;;20.00;;
35839;SDS011;35514;50.504;30.500;2023-03-23T06:09:41;45.35;;;19.92;;
35839;SDS011;35514;50.504;30.500;2023-03-23T06:12:09;43.03;;;19.30;;
35839;SDS011;35514;50.504;30.500;2023-03-23T06:14:36;44.67;;;19.85;;
35839;SDS011;35514;50.504;30.500;2023-03-23T06:17:03;46.75;;;20.55;;
35839;SDS011;35514;50.504;30.500;2023-03-23T06:19:30;49.90;;;19.77;;
35839;SDS011;35514;50.504;30.500;2023-03-23T06:21:56;44.75;;;19.85;;
35839;SDS011;35514;50.504;30.500;2023-03-23T06:24:24;43.92;;;19.75;;
35839;SDS011;35514;50.504;30.500;2023-03-23T06:26:51;45.92;;;18.42;;
35839;SDS011;35514;50.504;30.500;2023-03-23T06:29:18;45.72;;;19.50;;
35839;SDS011;35514;50.504;30.500;2023-03-23T06:31:46;43.05;;;18.80;;
35839;SDS011;35514;50.504;30.500;2023-03-23T06:34:14;44.08;;;17.80;;
35839;SDS011;35514;50.504;30.500;2023-03-23T06:36:43;46.33;;;19.02;;
35839;SDS011;35514;50.504;30.500;2023-03-23T06:39:10;40.55;;;17.85;;
35839;SDS011;35514;50.504;30.500;2023-03-23T06:41:37;41.45;;;19.30;;
35839;SDS011;35514;50.504;30.500;2023-03-23T06:44:04;39.10;;;18.10;;
35839;SDS011;35514;50.504;30.500;2023-03-23T06:46:32;43.70;;;18.73;;
35839;SDS011;35514;50.504;30.500;2023-03-23T06:48:59;43.03;;;18.30;;
35839;SDS011;35514;50.504;30.500;2023-03-23T06:51:25;36.05;;;17.77;;
35839;SDS011;35514;50.504;30.500;2023-03-23T06:53:52;46.10;;;19.13;;
35839;SDS011;35514;50.504;30.500;2023-03-23T06:56:18;42.72;;;19.15;;
35839;SDS011;35514;50.504;30.500;2023-03-23T06:58:45;45.80;;;18.98;;
35839;SDS011;35514;50.504;30.500;2023-03-23T07:01:12;41.67;;;19.35;;
35839;SDS011;35514;50.504;30.500;2023-03-23T07:03:41;41.55;;;17.60;;
35839;SDS011;35514;50.504;30.500;2023-03-23T07:06:08;44.33;;;18.15;;
35839;SDS011;35514;50.504;30.500;2023-03-23T07:08:35;44.72;;;17.58;;
35839;SDS011;35514;50.504;30.500;2023-03-23T07:11:29;36.30;;;17.63;;
35839;SDS011;35514;50.504;30.500;2023-03-23T07:13:56;39.88;;;18.75;;
35839;SDS011;35514;50.504;30.500;2023-03-23T07:16:22;38.88;;;17.73;;
35839;SDS011;35514;50.504;30.500;2023-03-23T07:18:50;43.85;;;18.05;;
35839;SDS011;35514;50.504;30.500;2023-03-23T07:21:17;37.33;;;17.13;;
35839;SDS011;35514;50.504;30.500;2023-03-23T07:23:43;37.33;;;17.35;;
35839;SDS011;35514;50.504;30.500;2023-03-23T07:26:11;40.75;;;17.23;;
35839;SDS011;35514;50.504;30.500;2023-03-23T07:28:38;34.28;;;15.75;;
35839;SDS011;35514;50.504;30.500;2023-03-23T07:31:05;38.88;;;18.45;;
35839;SDS011;35514;50.504;30.500;2023-03-23T07:33:33;41.85;;;18.88;;
35839;SDS011;35514;50.504;30.500;2023-03-23T07:36:02;50.55;;;19.15;;
35839;SDS011;35514;50.504;30.500;2023-03-23T07:38:29;40.47;;;18.60;;
35839;SDS011;35514;50.504;30.500;2023-03-23T07:40:55;39.83;;;17.77;;
35839;SDS011;35514;50.504;30.500;2023-03-23T07:43:23;46.45;;;19.33;;
35839;SDS011;35514;50.504;30.500;2023-03-23T07:45:50;31.40;;;15.32;;
35839;SDS011;35514;50.504;30.500;2023-03-23T07:48:16;30.92;;;15.25;;
35839;SDS011;35514;50.504;30.500;2023-03-23T07:51:10;32.20;;;15.02;;
35839;SDS011;35514;50.504;30.500;2023-03-23T07:54:01;31.55;;;15.27;;
35839;SDS011;35514;50.504;30.500;2023-03-23T07:56:54;34.70;;;15.35;;
35839;SDS011;35514;50.504;30.500;2023-03-23T07:59:46;27.92;;;13.52;;
35839;SDS011;35514;50.504;30.500;2023-03-23T08:02:13;29.10;;;13.93;;
35839;SDS011;35514;50.504;30.500;2023-03-23T08:04:39;31.40;;;14.95;;
35839;SDS011;35514;50.504;30.500;2023-03-23T08:07:08;28.58;;;13.80;;
35839;SDS011;35514;50.504;30.500;2023-03-23T08:10:03;32.08;;;14.05;;
35839;SDS011;35514;50.504;30.500;2023-03-23T08:12:29;29.75;;;14.00;;
35839;SDS011;35514;50.504;30.500;2023-03-23T08:14:59;34.00;;;15.40;;
35839;SDS011;35514;50.504;30.500;2023-03-23T08:17:25;30.13;;;14.23;;
35839;SDS011;35514;50.504;30.500;2023-03-23T08:19:52;28.42;;;15.32;;
35839;SDS011;35514;50.504;30.500;2023-03-23T08:22:20;31.42;;;13.30;;
35839;SDS011;35514;50.504;30.500;2023-03-23T08:24:46;31.25;;;14.43;;
35839;SDS011;35514;50.504;30.500;2023-03-23T08:27:13;34.90;;;15.07;;
35839;SDS011;35514;50.504;30.500;2023-03-23T08:29:41;38.78;;;15.05;;
35839;SDS011;35514;50.504;30.500;2023-03-23T08:32:09;31.75;;;14.73;;
35839;SDS011;35514;50.504;30.500;2023-03-23T08:37:32;30.95;;;14.10;;
35839;SDS011;35514;50.504;30.500;2023-03-23T08:39:59;25.05;;;13.05;;
35839;SDS011;35514;50.504;30.500;2023-03-23T08:42:25;31.17;;;13.05;;
35839;SDS011;35514;50.504;30.500;2023-03-23T08:44:52;25.80;;;13.10;;
35839;SDS011;35514;50.504;30.500;2023-03-23T08:47:19;31.08;;;13.02;;
35839;SDS011;35514;50.504;30.500;2023-03-23T08:49:45;27.58;;;12.35;;
35839;SDS011;35514;50.504;30.500;2023-03-23T08:52:12;28.63;;;12.63;;
35839;SDS011;35514;50.504;30.500;2023-03-23T08:54:41;31.05;;;13.55;;
35839;SDS011;35514;50.504;30.500;2023-03-23T08:57:12;29.50;;;14.05;;
35839;SDS011;35514;50.504;30.500;2023-03-23T08:59:39;30.83;;;13.07;;
35839;SDS011;35514;50.504;30.500;2023-03-23T09:02:11;23.35;;;12.73;;
35839;SDS011;35514;50.504;30.500;2023-03-23T09:04:38;27.42;;;12.50;;
35839;SDS011;35514;50.504;30.500;2023-03-23T09:07:28;23.55;;;11.38;;
35839;SDS011;35514;50.504;30.500;2023-03-23T09:09:56;27.77;;;11.80;;
35839;SDS011;35514;50.504;30.500;2023-03-23T09:12:23;21.52;;;11.18;;
35839;SDS011;35514;50.504;30.500;2023-03-23T09:15:15;24.48;;;12.23;;
35839;SDS011;35514;50.504;30.500;2023-03-23T09:18:07;27.17;;;12.35;;
35839;SDS011;35514;50.504;30.500;2023-03-23T09:20:34;26.48;;;12.57;;
35839;SDS011;35514;50.504;30.500;2023-03-23T09:23:02;23.13;;;11.63;;
35839;SDS011;35514;50.504;30.500;2023-03-23T09:25:30;26.35;;;10.93;;
35839;SDS011;35514;50.504;30.500;2023-03-23T09:27:58;26.08;;;11.93;;
35839;SDS011;35514;50.504;30.500;2023-03-23T09:30:26;25.90;;;11.98;;
35839;SDS011;35514;50.504;30.500;2023-03-23T09:32:52;23.58;;;12.23;;
35839;SDS011;35514;50.504;30.500;2023-03-23T09:35:19;26.35;;;11.98;;
35839;SDS011;35514;50.504;30.500;2023-03-23T09:37:47;28.98;;;11.38;;
35839;SDS011;35514;50.504;30.500;2023-03-23T09:40:15;25.77;;;11.23;;
35839;SDS011;35514;50.504;30.500;2023-03-23T09:42:56;21.15;;;11.50;;
35839;SDS011;35514;50.504;30.500;2023-03-23T09:45:24;22.48;;;10.90;;
35839;SDS011;35514;50.504;30.500;2023-03-23T09:48:00;24.13;;;12.50;;
35839;SDS011;35514;50.504;30.500;2023-03-23T09:50:30;20.67;;;12.05;;
35839;SDS011;35514;50.504;30.500;2023-03-23T09:52:58;27.73;;;11.70;;
35839;SDS011;35514;50.504;30.500;2023-03-23T09:55:26;24.48;;;12.10;;
35839;SDS011;35514;50.504;30.500;2023-03-23T09:57:57;29.63;;;11.52;;
35839;SDS011;35514;50.504;30.500;2023-03-23T10:00:51;22.85;;;11.82;;
35839;SDS011;35514;50.504;30.500;2023-03-23T10:03:19;25.42;;;12.50;;
35839;SDS011;35514;50.504;30.500;2023-03-23T10:05:47;27.20;;;10.90;;
35839;SDS011;35514;50.504;30.500;2023-03-23T10:08:15;28.23;;;12.10;;
35839;SDS011;35514;50.504;30.500;2023-03-23T10:10:45;22.35;;;11.00;;
35839;SDS011;35514;50.504;30.500;2023-03-23T10:13:18;24.83;;;12.25;;
35839;SDS011;35514;50.504;30.500;2023-03-23T10:15:46;27.90;;;11.77;;
35839;SDS011;35514;50.504;30.500;2023-03-23T10:18:15;22.10;;;11.23;;
35839;SDS011;35514;50.504;30.500;2023-03-23T10:20:43;22.77;;;11.25;;
35839;SDS011;35514;50.504;30.500;2023-03-23T10:23:13;25.40;;;11.50;;
35839;SDS011;35514;50.504;30.500;2023-03-23T10:25:41;24.52;;;11.68;;
35839;SDS011;35514;50.504;30.500;2023-03-23T10:28:10;22.08;;;11.60;;
35839;SDS011;35514;50.504;30.500;2023-03-23T10:30:39;25.90;;;12.20;;
35839;SDS011;35514;50.504;30.500;2023-03-23T10:33:08;26.35;;;12.18;;
35839;SDS011;35514;50.504;30.500;2023-03-23T10:35:39;24.92;;;11.63;;
35839;SDS011;35514;50.504;30.500;2023-03-23T10:38:09;22.58;;;11.35;;
35839;SDS011;35514;50.504;30.500;2023-03-23T10:40:43;22.58;;;12.23;;
35839;SDS011;35514;50.504;30.500;2023-03-23T10:43:10;19.17;;;10.63;;
35839;SDS011;35514;50.504;30.500;2023-03-23T10:45:36;22.88;;;10.95;;
35839;SDS011;35514;50.504;30.500;2023-03-23T10:48:08;21.38;;;10.70;;
35839;SDS011;35514;50.504;30.500;2023-03-23T10:50:36;27.55;;;12.73;;
35839;SDS011;35514;50.504;30.500;2023-03-23T10:53:07;29.50;;;12.77;;
35839;SDS011;35514;50.504;30.500;2023-03-23T10:55:40;27.33;;;11.43;;
35839;SDS011;35514;50.504;30.500;2023-03-23T10:58:09;23.35;;;11.07;;
35839;SDS011;35514;50.504;30.500;2023-03-23T11:00:39;27.95;;;11.05;;
35839;SDS011;35514;50.504;30.500;2023-03-23T11:06:01;24.95;;;11.07;;
35839;SDS011;35514;50.504;30.500;2023-03-23T11:08:30;18.15;;;10.30;;
35839;SDS011;35514;50.504;30.500;2023-03-23T11:11:07;25.02;;;10.38;;
35839;SDS011;35514;50.504;30.500;2023-03-23T11:13:37;21.10;;;10.57;;
35839;SDS011;35514;50.504;30.500;2023-03-23T11:16:05;22.00;;;10.35;;
35839;SDS011;35514;50.504;30.500;2023-03-23T11:18:35;18.83;;;11.13;;
35839;SDS011;35514;50.504;30.500;2023-03-23T11:21:03;21.27;;;9.50;;
35839;SDS011;35514;50.504;30.500;2023-03-23T11:23:32;15.95;;;9.10;;
35839;SDS011;35514;50.504;30.500;2023-03-23T11:26:06;22.50;;;10.55;;
35839;SDS011;35514;50.504;30.500;2023-03-23T11:28:38;19.90;;;10.60;;
35839;SDS011;35514;50.504;30.500;2023-03-23T11:31:08;18.00;;;9.07;;
35839;SDS011;35514;50.504;30.500;2023-03-23T11:33:37;17.73;;;9.10;;
35839;SDS011;35514;50.504;30.500;2023-03-23T11:36:07;19.77;;;9.45;;
35839;SDS011;35514;50.504;30.500;2023-03-23T11:38:34;23.95;;;10.75;;
35839;SDS011;35514;50.504;30.500;2023-03-23T11:41:01;22.40;;;10.13;;
35839;SDS011;35514;50.504;30.500;2023-03-23T11:43:28;21.50;;;11.35;;
35839;SDS011;35514;50.504;30.500;2023-03-23T11:46:01;21.98;;;9.85;;
35839;SDS011;35514;50.504;30.500;2023-03-23T11:48:33;19.02;;;10.20;;
35839;SDS011;35514;50.504;30.500;2023-03-23T11:51:02;18.95;;;10.63;;
35839;SDS011;35514;50.504;30.500;2023-03-23T11:53:33;25.83;;;9.65;;
35839;SDS011;35514;50.504;30.500;2023-03-23T11:56:06;20.63;;;10.50;;
35839;SDS011;35514;50.504;30.500;2023-03-23T11:58:34;17.63;;;9.57;;
35839;SDS011;35514;50.504;30.500;2023-03-23T12:01:04;17.00;;;9.07;;
35839;SDS011;35514;50.504;30.500;2023-03-23T12:04:13;23.85;;;8.95;;
35839;SDS011;35514;50.504;30.500;2023-03-23T12:06:44;18.95;;;9.50;;
35839;SDS011;35514;50.504;30.500;2023-03-23T12:09:18;15.65;;;8.90;;
35839;SDS011;35514;50.504;30.500;2023-03-23T12:11:51;18.23;;;8.45;;
35839;SDS011;35514;50.504;30.500;2023-03-23T12:14:21;19.55;;;8.50;;
35839;SDS011;35514;50.504;30.500;2023-03-23T12:16:53;18.42;;;8.73;;
35839;SDS011;35514;50.504;30.500;2023-03-23T12:19:37;16.38;;;8.85;;
35839;SDS011;35514;50.504;30.500;2023-03-23T12:22:34;17.42;;;8.85;;
35839;SDS011;35514;50.504;30.500;2023-03-23T12:28:15;17.88;;;8.98;;
35839;SDS011;35514;50.504;30.500;2023-03-23T12:30:47;23.00;;;10.07;;
35839;SDS011;35514;50.504;30.500;2023-03-23T12:33:43;17.52;;;8.50;;
35839;SDS011;35514;50.504;30.500;2023-03-23T12:36:15;16.00;;;9.23;;
35839;SDS011;35514;50.504;30.500;2023-03-23T12:41:26;17.80;;;9.50;;
35839;SDS011;35514;50.504;30.500;2023-03-23T12:43:58;20.23;;;8.90;;
35839;SDS011;35514;50.504;30.500;2023-03-23T12:46:33;21.92;;;9.88;;
35839;SDS011;35514;50.504;30.500;2023-03-23T12:49:07;20.02;;;8.73;;
35839;SDS011;35514;50.504;30.500;2023-03-23T12:51:40;17.98;;;9.25;;
35839;SDS011;35514;50.504;30.500;2023-03-23T12:54:09;20.33;;;9.52;;
35839;SDS011;35514;50.504;30.500;2023-03-23T12:56:38;18.92;;;8.77;;
35839;SDS011;35514;50.504;30.500;2023-03-23T12:59:12;19.50;;;8.45;;
35839;SDS011;35514;50.504;30.500;2023-03-23T13:01:43;18.67;;;8.95;;
35839;SDS011;35514;50.504;30.500;2023-03-23T13:04:36;19.60;;;8.75;;
35839;SDS011;35514;50.504;30.500;2023-03-23T13:07:05;21.38;;;8.70;;
35839;SDS011;35514;50.504;30.500;2023-03-23T13:09:36;14.18;;;7.28;;
35839;SDS011;35514;50.504;30.500;2023-03-23T13:12:05;18.17;;;8.95;;
35839;SDS011;35514;50.504;30.500;2023-03-23T13:14:40;18.50;;;8.88;;
35839;SDS011;35514;50.504;30.500;2023-03-23T13:17:10;15.45;;;7.82;;
35839;SDS011;35514;50.504;30.500;2023-03-23T13:19:53;19.70;;;8.70;;
35839;SDS011;35514;50.504;30.500;2023-03-23T13:22:23;19.08;;;8.07;;
35839;SDS011;35514;50.504;30.500;2023-03-23T13:24:53;25.25;;;9.70;;
35839;SDS011;35514;50.504;30.500;2023-03-23T13:27:22;24.08;;;9.35;;
35839;SDS011;35514;50.504;30.500;2023-03-23T13:29:52;16.15;;;7.95;;
35839;SDS011;35514;50.504;30.500;2023-03-23T13:32:20;17.75;;;8.20;;
35839;SDS011;35514;50.504;30.500;2023-03-23T13:34:49;13.48;;;7.35;;
35839;SDS011;35514;50.504;30.500;2023-03-23T13:37:41;16.45;;;8.48;;
35839;SDS011;35514;50.504;30.500;2023-03-23T13:40:16;15.38;;;8.25;;
35839;SDS011;35514;50.504;30.500;2023-03-23T13:42:48;15.18;;;8.10;;
35839;SDS011;35514;50.504;30.500;2023-03-23T13:45:20;15.15;;;7.72;;
35839;SDS011;35514;50.504;30.500;2023-03-23T13:47:47;16.63;;;8.38;;
35839;SDS011;35514;50.504;30.500;2023-03-23T13:50:24;17.42;;;8.38;;
35839;SDS011;35514;50.504;30.500;2023-03-23T13:52:52;16.38;;;9.13;;
35839;SDS011;35514;50.504;30.500;2023-03-23T13:55:21;19.92;;;8.65;;
35839;SDS011;35514;50.504;30.500;2023-03-23T13:57:51;19.67;;;9.88;;
35839;SDS011;35514;50.504;30.500;2023-03-23T14:00:31;16.30;;;8.65;;
35839;SDS011;35514;50.504;30.500;2023-03-23T14:03:00;27.23;;;8.75;;
35839;SDS011;35514;50.504;30.500;2023-03-23T14:05:31;19.15;;;8.63;;
35839;SDS011;35514;50.504;30.500;2023-03-23T14:07:59;17.80;;;8.48;;
35839;SDS011;35514;50.504;30.500;2023-03-23T14:10:31;15.52;;;9.05;;
35839;SDS011;35514;50.504;30.500;2023-03-23T14:13:02;17.65;;;9.25;;
35839;SDS011;35514;50.504;30.500;2023-03-23T14:15:36;19.25;;;8.75;;
35839;SDS011;35514;50.504;30.500;2023-03-23T14:18:31;19.70;;;8.90;;
35839;SDS011;35514;50.504;30.500;2023-03-23T14:20:57;17.50;;;9.35;;
35839;SDS011;35514;50.504;30.500;2023-03-23T14:23:24;17.27;;;8.82;;
35839;SDS011;35514;50.504;30.500;2023-03-23T14:25:54;18.83;;;9.63;;
35839;SDS011;35514;50.504;30.500;2023-03-23T14:28:21;17.20;;;8.90;;
35839;SDS011;35514;50.504;30.500;2023-03-23T14:34:10;18.23;;;9.48;;
35839;SDS011;35514;50.504;30.500;2023-03-23T14:36:38;13.80;;;8.55;;
35839;SDS011;35514;50.504;30.500;2023-03-23T14:39:06;18.50;;;8.82;;
35839;SDS011;35514;50.504;30.500;2023-03-23T14:41:36;19.67;;;8.77;;
35839;SDS011;35514;50.504;30.500;2023-03-23T14:44:03;18.55;;;8.85;;
35839;SDS011;35514;50.504;30.500;2023-03-23T14:46:32;16.40;;;7.93;;
35839;SDS011;35514;50.504;30.500;2023-03-23T14:49:00;12.50;;;7.20;;